sensor_id;sensor_type;location;lat;lon;timestamp;pressure;altitude;pressure_sealevel;temperature;humidity
18813;BME280;9534;51.140;6.296;2023-02-28T00:01:18;101916.94;;;-0.32;100.00
18813;BME280;9534;51.140;6.296;2023-02-28T00:05:23;101915.38;;;-0.47;100.00
18813;BME280;9534;51.140;6.296;2023-02-28T00:09:28;101915.16;;;-0.44;100.00
18813;BME280;9534;51.140;6.296;2023-02-28T00:13:31;101909.78;;;-0.44;100.00
18813;BME280;9534;51.140;6.296;2023-02-28T00:17:34;101911.81;;;-0.48;100.00
18813;BME280;9534;51.140;6.296;2023-02-28T00:21:39;101912.69;;;-0.60;100.00
18813;BME280;9534;51.140;6.296;2023-02-28T00:25:44;101917.63;;;-0.54;100.00
18813;BME280;9534;51.140;6.296;2023-02-28T00:29:47;101917.31;;;-0.62;100.00
18813;BME280;9534;51.140;6.296;2023-02-28T00:33:51;101916.78;;;-0.92;100.00
18813;BME280;9534;51.140;6.296;2023-02-28T00:37:56;101926.44;;;-1.02;100.00
18813;BME280;9534;51.140;6.296;2023-02-28T00:42:02;101924.94;;;-1.06;100.00
18813;BME280;9534;51.140;6.296;2023-02-28T00:46:06;101926.94;;;-1.21;100.00
18813;BME280;9534;51.140;6.296;2023-02-28T00:50:10;101925.13;;;-1.21;100.00
18813;BME280;9534;51.140;6.296;2023-02-28T00:54:15;101930.06;;;-1.15;100.00
18813;BME280;9534;51.140;6.296;2023-02-28T00:58:21;101932.53;;;-1.24;100.00
18813;BME280;9534;51.140;6.296;2023-02-28T01:02:25;101930.81;;;-1.13;100.00
18813;BME280;9534;51.140;6.296;2023-02-28T01:06:28;101933.97;;;-0.94;100.00
18813;BME280;9534;51.140;6.296;2023-02-28T01:10:33;101935.06;;;-0.97;100.00
18813;BME280;9534;51.140;6.296;2023-02-28T01:14:39;101933.44;;;-0.87;100.00
18813;BME280;9534;51.140;6.296;2023-02-28T01:18:42;101943.53;;;-0.90;100.00
18813;BME280;9534;51.140;6.296;2023-02-28T01:22:46;101938.16;;;-1.03;100.00
18813;BME280;9534;51.140;6.296;2023-02-28T01:26:50;101937.66;;;-0.83;100.00
18813;BME280;9534;51.140;6.296;2023-02-28T01:30:55;101937.19;;;-1.02;100.00
18813;BME280;9534;51.140;6.296;2023-02-28T01:34:58;101936.72;;;-1.08;100.00
18813;BME280;9534;51.140;6.296;2023-02-28T01:39:02;101928.59;;;-1.07;100.00
18813;BME280;9534;51.140;6.296;2023-02-28T01:43:16;101929.84;;;-1.12;100.00
18813;BME280;9534;51.140;6.296;2023-02-28T01:47:22;101928.53;;;-1.31;100.00
18813;BME280;9534;51.140;6.296;2023-02-28T01:51:31;101923.91;;;-1.29;100.00
18813;BME280;9534;51.140;6.296;2023-02-28T01:55:39;101920.75;;;-1.48;100.00
18813;BME280;9534;51.140;6.296;2023-02-28T01:59:50;101924.41;;;-1.49;100.00
18813;BME280;9534;51.140;6.296;2023-02-28T02:03:56;101915.78;;;-1.54;100.00
18813;BME280;9534;51.140;6.296;2023-02-28T02:08:03;101922.72;;;-1.38;100.00
18813;BME280;9534;51.140;6.296;2023-02-28T02:12:19;101915.31;;;-1.34;100.00
18813;BME280;9534;51.140;6.296;2023-02-28T02:16:35;101914.56;;;-1.36;100.00
18813;BME280;9534;51.140;6.296;2023-02-28T02:25:40;101901.13;;;-1.36;100.00
18813;BME280;9534;51.140;6.296;2023-02-28T02:30:14;101907.19;;;-1.20;100.00
18813;BME280;9534;51.140;6.296;2023-02-28T02:34:28;101904.28;;;-1.17;100.00
18813;BME280;9534;51.140;6.296;2023-02-28T02:38:36;101903.00;;;-1.12;100.00
18813;BME280;9534;51.140;6.296;2023-02-28T02:42:45;101906.69;;;-1.01;100.00
18813;BME280;9534;51.140;6.296;2023-02-28T02:46:57;101904.28;;;-1.05;100.00
18813;BME280;9534;51.140;6.296;2023-02-28T02:51:05;101897.22;;;-0.94;100.00
18813;BME280;9534;51.140;6.296;2023-02-28T02:55:17;101898.28;;;-0.96;100.00
18813;BME280;9534;51.140;6.296;2023-02-28T02:59:22;101904.72;;;-1.11;100.00
18813;BME280;9534;51.140;6.296;2023-02-28T03:03:26;101898.38;;;-1.10;100.00
18813;BME280;9534;51.140;6.296;2023-02-28T03:07:32;101906.69;;;-1.01;100.00
18813;BME280;9534;51.140;6.296;2023-02-28T03:11:36;101904.63;;;-1.10;100.00
18813;BME280;9534;51.140;6.296;2023-02-28T03:15:50;101900.84;;;-1.19;100.00
18813;BME280;9534;51.140;6.296;2023-02-28T03:20:02;101894.19;;;-1.26;100.00
18813;BME280;9534;51.140;6.296;2023-02-28T03:24:16;101897.34;;;-1.46;100.00
18813;BME280;9534;51.140;6.296;2023-02-28T03:28:30;101900.59;;;-1.41;100.00
18813;BME280;9534;51.140;6.296;2023-02-28T03:32:38;101888.19;;;-1.56;100.00
18813;BME280;9534;51.140;6.296;2023-02-28T03:36:46;101892.81;;;-1.58;100.00
18813;BME280;9534;51.140;6.296;2023-02-28T03:40:57;101888.91;;;-1.79;100.00
18813;BME280;9534;51.140;6.296;2023-02-28T03:45:05;101893.91;;;-1.87;100.00
18813;BME280;9534;51.140;6.296;2023-02-28T03:49:17;101888.81;;;-1.92;100.00
18813;BME280;9534;51.140;6.296;2023-02-28T03:53:25;101889.91;;;-1.94;100.00
18813;BME280;9534;51.140;6.296;2023-02-28T03:57:34;101898.22;;;-1.99;100.00
18813;BME280;9534;51.140;6.296;2023-02-28T04:01:43;101891.41;;;-1.90;100.00
18813;BME280;9534;51.140;6.296;2023-02-28T04:05:50;101896.09;;;-1.94;100.00
18813;BME280;9534;51.140;6.296;2023-02-28T04:09:54;101903.88;;;-1.89;100.00
18813;BME280;9534;51.140;6.296;2023-02-28T04:13:58;101899.44;;;-1.76;100.00
18813;BME280;9534;51.140;6.296;2023-02-28T04:18:01;101892.78;;;-1.97;100.00
18813;BME280;9534;51.140;6.296;2023-02-28T04:22:04;101907.47;;;-1.76;100.00
18813;BME280;9534;51.140;6.296;2023-02-28T04:26:08;101908.88;;;-1.97;100.00
18813;BME280;9534;51.140;6.296;2023-02-28T04:30:12;101918.88;;;-1.87;100.00
18813;BME280;9534;51.140;6.296;2023-02-28T04:34:16;101923.97;;;-1.82;100.00
18813;BME280;9534;51.140;6.296;2023-02-28T04:38:20;101925.72;;;-1.69;100.00
18813;BME280;9534;51.140;6.296;2023-02-28T04:42:23;101924.69;;;-1.66;100.00
18813;BME280;9534;51.140;6.296;2023-02-28T04:46:28;101928.81;;;-1.75;100.00
18813;BME280;9534;51.140;6.296;2023-02-28T04:50:32;101915.03;;;-1.83;100.00
18813;BME280;9534;51.140;6.296;2023-02-28T04:54:35;101920.13;;;-1.78;100.00
18813;BME280;9534;51.140;6.296;2023-02-28T04:58:40;101923.22;;;-1.84;100.00
18813;BME280;9534;51.140;6.296;2023-02-28T05:02:45;101920.72;;;-1.87;100.00
18813;BME280;9534;51.140;6.296;2023-02-28T05:06:49;101924.31;;;-1.74;100.00
18813;BME280;9534;51.140;6.296;2023-02-28T05:10:52;101920.22;;;-1.80;100.00
18813;BME280;9534;51.140;6.296;2023-02-28T05:14:55;101928.78;;;-1.87;100.00
18813;BME280;9534;51.140;6.296;2023-02-28T05:19:00;101927.28;;;-1.79;100.00
18813;BME280;9534;51.140;6.296;2023-02-28T05:23:03;101914.03;;;-1.68;100.00
18813;BME280;9534;51.140;6.296;2023-02-28T05:27:07;101921.94;;;-1.79;100.00
18813;BME280;9534;51.140;6.296;2023-02-28T05:31:11;101916.31;;;-1.88;100.00
18813;BME280;9534;51.140;6.296;2023-02-28T05:35:16;101927.25;;;-1.91;100.00
18813;BME280;9534;51.140;6.296;2023-02-28T05:39:19;101915.00;;;-1.95;100.00
18813;BME280;9534;51.140;6.296;2023-02-28T05:43:22;101927.59;;;-2.10;100.00
18813;BME280;9534;51.140;6.296;2023-02-28T05:47:25;101936.47;;;-1.95;100.00
18813;BME280;9534;51.140;6.296;2023-02-28T05:51:30;101939.31;;;-1.84;100.00
18813;BME280;9534;51.140;6.296;2023-02-28T05:55:33;101930.72;;;-2.03;100.00
18813;BME280;9534;51.140;6.296;2023-02-28T05:59:37;101935.31;;;-2.05;100.00
18813;BME280;9534;51.140;6.296;2023-02-28T06:03:41;101933.59;;;-2.06;100.00
18813;BME280;9534;51.140;6.296;2023-02-28T06:07:46;101933.03;;;-2.11;100.00
18813;BME280;9534;51.140;6.296;2023-02-28T06:11:49;101932.09;;;-2.24;100.00
18813;BME280;9534;51.140;6.296;2023-02-28T06:15:52;101941.47;;;-2.17;100.00
18813;BME280;9534;51.140;6.296;2023-02-28T06:19:55;101940.50;;;-2.16;100.00
18813;BME280;9534;51.140;6.296;2023-02-28T06:24:00;101947.97;;;-2.07;100.00
18813;BME280;9534;51.140;6.296;2023-02-28T06:28:04;101949.69;;;-2.06;100.00
18813;BME280;9534;51.140;6.296;2023-02-28T06:32:07;101951.81;;;-2.11;100.00
18813;BME280;9534;51.140;6.296;2023-02-28T06:36:12;101951.81;;;-2.11;100.00
18813;BME280;9534;51.140;6.296;2023-02-28T06:40:17;101954.13;;;-2.19;100.00
18813;BME280;9534;51.140;6.296;2023-02-28T06:44:21;101956.78;;;-2.05;100.00
18813;BME280;9534;51.140;6.296;2023-02-28T06:48:26;101957.53;;;-2.03;100.00
18813;BME280;9534;51.140;6.296;2023-02-28T06:52:29;101960.97;;;-1.87;100.00
18813;BME280;9534;51.140;6.296;2023-02-28T06:56:35;101972.81;;;-1.77;100.00
18813;BME280;9534;51.140;6.296;2023-02-28T07:00:38;101968.97;;;-1.73;100.00
18813;BME280;9534;51.140;6.296;2023-02-28T07:04:41;101968.56;;;-1.67;100.00
18813;BME280;9534;51.140;6.296;2023-02-28T07:08:46;101966.69;;;-1.53;100.00
18813;BME280;9534;51.140;6.296;2023-02-28T07:12:51;101962.88;;;-1.36;100.00
18813;BME280;9534;51.140;6.296;2023-02-28T07:16:54;101956.91;;;-1.27;100.00
18813;BME280;9534;51.140;6.296;2023-02-28T07:20:57;101955.88;;;-1.13;100.00
18813;BME280;9534;51.140;6.296;2023-02-28T07:25:00;101956.09;;;-1.03;100.00
18813;BME280;9534;51.140;6.296;2023-02-28T07:29:05;101956.75;;;-0.87;100.00
18813;BME280;9534;51.140;6.296;2023-02-28T07:33:08;101953.75;;;-0.58;100.00
18813;BME280;9534;51.140;6.296;2023-02-28T07:37:12;101961.16;;;-0.24;100.00
18813;BME280;9534;51.140;6.296;2023-02-28T07:41:15;101954.28;;;0.20;100.00
18813;BME280;9534;51.140;6.296;2023-02-28T07:45:20;101954.47;;;0.53;100.00
18813;BME280;9534;51.140;6.296;2023-02-28T07:49:23;101945.00;;;0.71;100.00
18813;BME280;9534;51.140;6.296;2023-02-28T07:53:27;101959.22;;;1.08;100.00
18813;BME280;9534;51.140;6.296;2023-02-28T07:57:30;101956.97;;;1.25;100.00
18813;BME280;9534;51.140;6.296;2023-02-28T08:01:37;101953.06;;;1.29;100.00
18813;BME280;9534;51.140;6.296;2023-02-28T08:05:41;101950.38;;;1.73;100.00
18813;BME280;9534;51.140;6.296;2023-02-28T08:09:44;101954.31;;;2.02;100.00
18813;BME280;9534;51.140;6.296;2023-02-28T08:13:47;101960.06;;;2.08;100.00
18813;BME280;9534;51.140;6.296;2023-02-28T08:17:52;101956.09;;;2.34;100.00
18813;BME280;9534;51.140;6.296;2023-02-28T08:21:55;101963.56;;;2.84;100.00
18813;BME280;9534;51.140;6.296;2023-02-28T08:25:58;101959.78;;;2.44;100.00
18813;BME280;9534;51.140;6.296;2023-02-28T08:30:02;101966.81;;;2.67;100.00
18813;BME280;9534;51.140;6.296;2023-02-28T08:34:07;101968.97;;;2.84;100.00
18813;BME280;9534;51.140;6.296;2023-02-28T08:38:11;101973.72;;;3.23;100.00
18813;BME280;9534;51.140;6.296;2023-02-28T08:42:14;101964.50;;;2.94;100.00
18813;BME280;9534;51.140;6.296;2023-02-28T08:46:17;101972.25;;;3.19;100.00
18813;BME280;9534;51.140;6.296;2023-02-28T08:50:22;101972.25;;;3.19;100.00
18813;BME280;9534;51.140;6.296;2023-02-28T08:54:25;101963.38;;;3.78;100.00
18813;BME280;9534;51.140;6.296;2023-02-28T08:58:33;101956.16;;;3.88;100.00
18813;BME280;9534;51.140;6.296;2023-02-28T09:02:38;101959.97;;;3.56;100.00
18813;BME280;9534;51.140;6.296;2023-02-28T09:06:42;101957.56;;;3.82;100.00
18813;BME280;9534;51.140;6.296;2023-02-28T09:10:46;101958.34;;;4.33;100.00
18813;BME280;9534;51.140;6.296;2023-02-28T09:14:51;101958.19;;;4.44;100.00
18813;BME280;9534;51.140;6.296;2023-02-28T09:18:54;101958.28;;;4.14;100.00
18813;BME280;9534;51.140;6.296;2023-02-28T09:22:59;101957.19;;;4.45;100.00
18813;BME280;9534;51.140;6.296;2023-02-28T09:27:02;101954.09;;;4.50;100.00
18813;BME280;9534;51.140;6.296;2023-02-28T09:31:10;101958.72;;;4.87;100.00
18813;BME280;9534;51.140;6.296;2023-02-28T09:35:16;101955.56;;;5.10;100.00
18813;BME280;9534;51.140;6.296;2023-02-28T09:39:21;101947.56;;;4.90;98.79
18813;BME280;9534;51.140;6.296;2023-02-28T09:43:26;101950.44;;;4.98;95.08
18813;BME280;9534;51.140;6.296;2023-02-28T09:47:34;101963.50;;;4.55;93.13
18813;BME280;9534;51.140;6.296;2023-02-28T09:51:46;101961.56;;;4.95;92.41
18813;BME280;9534;51.140;6.296;2023-02-28T09:55:55;101960.38;;;5.45;92.87
18813;BME280;9534;51.140;6.296;2023-02-28T10:00:07;101947.56;;;4.71;89.63
18813;BME280;9534;51.140;6.296;2023-02-28T10:04:33;101950.16;;;5.01;88.80
18813;BME280;9534;51.140;6.296;2023-02-28T10:08:42;101956.28;;;5.03;88.77
18813;BME280;9534;51.140;6.296;2023-02-28T10:12:51;101957.44;;;4.91;89.54
18813;BME280;9534;51.140;6.296;2023-02-28T10:16:58;101952.53;;;5.23;87.96
18813;BME280;9534;51.140;6.296;2023-02-28T10:21:02;101947.28;;;6.22;84.88
18813;BME280;9534;51.140;6.296;2023-02-28T10:25:17;101950.69;;;6.24;74.71
18813;BME280;9534;51.140;6.296;2023-02-28T10:29:22;101954.31;;;5.89;80.55
18813;BME280;9534;51.140;6.296;2023-02-28T10:33:29;101950.66;;;5.52;82.42
18813;BME280;9534;51.140;6.296;2023-02-28T10:37:33;101947.69;;;6.01;79.76
18813;BME280;9534;51.140;6.296;2023-02-28T10:41:42;101954.94;;;5.54;83.83
18813;BME280;9534;51.140;6.296;2023-02-28T10:45:56;101935.19;;;7.14;77.27
18813;BME280;9534;51.140;6.296;2023-02-28T10:50:01;101943.22;;;6.36;77.29
18813;BME280;9534;51.140;6.296;2023-02-28T10:54:04;101939.88;;;5.14;83.96
18813;BME280;9534;51.140;6.296;2023-02-28T10:58:21;101936.41;;;5.31;89.82
18813;BME280;9534;51.140;6.296;2023-02-28T11:02:32;101930.28;;;5.94;80.98
18813;BME280;9534;51.140;6.296;2023-02-28T11:06:35;101927.19;;;6.06;83.88
18813;BME280;9534;51.140;6.296;2023-02-28T11:10:39;101931.09;;;6.04;84.38
18813;BME280;9534;51.140;6.296;2023-02-28T11:14:49;101930.69;;;5.99;82.39
18813;BME280;9534;51.140;6.296;2023-02-28T11:18:55;101924.78;;;6.74;81.58
18813;BME280;9534;51.140;6.296;2023-02-28T11:23:00;101921.00;;;6.13;80.57
18813;BME280;9534;51.140;6.296;2023-02-28T11:27:04;101909.03;;;6.07;81.06
18813;BME280;9534;51.140;6.296;2023-02-28T11:31:18;101911.66;;;6.25;83.09
18813;BME280;9534;51.140;6.296;2023-02-28T11:35:28;101906.53;;;7.27;77.52
18813;BME280;9534;51.140;6.296;2023-02-28T11:39:33;101901.69;;;7.38;76.06
18813;BME280;9534;51.140;6.296;2023-02-28T11:43:51;101912.91;;;6.31;78.12
18813;BME280;9534;51.140;6.296;2023-02-28T11:48:01;101908.50;;;6.47;81.22
18813;BME280;9534;51.140;6.296;2023-02-28T11:52:20;101899.47;;;6.29;80.90
18813;BME280;9534;51.140;6.296;2023-02-28T11:56:29;101906.53;;;7.78;78.78
18813;BME280;9534;51.140;6.296;2023-02-28T12:00:40;101920.84;;;7.72;81.23
18813;BME280;9534;51.140;6.296;2023-02-28T12:04:54;101919.72;;;7.32;80.02
18813;BME280;9534;51.140;6.296;2023-02-28T12:09:13;101910.03;;;8.70;78.05
18813;BME280;9534;51.140;6.296;2023-02-28T12:13:26;101911.34;;;8.09;75.02
18813;BME280;9534;51.140;6.296;2023-02-28T12:17:45;101911.00;;;6.93;79.23
18813;BME280;9534;51.140;6.296;2023-02-28T12:22:12;101905.50;;;5.87;90.15
18813;BME280;9534;51.140;6.296;2023-02-28T12:26:23;101903.13;;;5.29;91.75
18813;BME280;9534;51.140;6.296;2023-02-28T12:30:34;101909.59;;;5.09;94.59
18813;BME280;9534;51.140;6.296;2023-02-28T12:34:41;101901.31;;;5.20;97.02
18813;BME280;9534;51.140;6.296;2023-02-28T12:38:48;101895.97;;;5.93;96.77
18813;BME280;9534;51.140;6.296;2023-02-28T12:43:00;101876.97;;;7.91;88.45
18813;BME280;9534;51.140;6.296;2023-02-28T12:47:09;101875.41;;;6.34;89.74
18813;BME280;9534;51.140;6.296;2023-02-28T12:51:17;101877.88;;;6.01;92.55
18813;BME280;9534;51.140;6.296;2023-02-28T12:55:27;101864.22;;;5.84;96.10
18813;BME280;9534;51.140;6.296;2023-02-28T12:59:39;101855.66;;;6.85;89.39
18813;BME280;9534;51.140;6.296;2023-02-28T13:04:04;101852.44;;;6.81;84.22
18813;BME280;9534;51.140;6.296;2023-02-28T13:12:57;101846.13;;;6.46;83.28
18813;BME280;9534;51.140;6.296;2023-02-28T13:17:10;101839.13;;;6.61;82.49
18813;BME280;9534;51.140;6.296;2023-02-28T13:21:22;101836.88;;;6.56;83.34
18813;BME280;9534;51.140;6.296;2023-02-28T13:25:50;101834.66;;;7.71;79.62
18813;BME280;9534;51.140;6.296;2023-02-28T13:29:55;101835.00;;;8.59;73.41
18813;BME280;9534;51.140;6.296;2023-02-28T13:34:13;101844.13;;;6.65;78.22
18813;BME280;9534;51.140;6.296;2023-02-28T13:38:23;101836.13;;;7.32;77.10
18813;BME280;9534;51.140;6.296;2023-02-28T13:42:34;101835.97;;;7.33;74.00
18813;BME280;9534;51.140;6.296;2023-02-28T13:47:15;101836.94;;;7.50;77.39
18813;BME280;9534;51.140;6.296;2023-02-28T13:51:39;101835.53;;;8.21;72.78
18813;BME280;9534;51.140;6.296;2023-02-28T13:55:46;101835.50;;;8.70;70.23
18813;BME280;9534;51.140;6.296;2023-02-28T14:00:03;101831.41;;;8.09;72.55
18813;BME280;9534;51.140;6.296;2023-02-28T14:08:57;101823.38;;;8.57;70.63
18813;BME280;9534;51.140;6.296;2023-02-28T14:13:11;101814.50;;;8.39;71.65
18813;BME280;9534;51.140;6.296;2023-02-28T14:17:17;101807.88;;;8.08;70.79
18813;BME280;9534;51.140;6.296;2023-02-28T14:21:23;101813.78;;;8.37;69.85
18813;BME280;9534;51.140;6.296;2023-02-28T14:25:33;101799.94;;;7.81;72.33
18813;BME280;9534;51.140;6.296;2023-02-28T14:34:24;101800.06;;;9.56;66.54
18813;BME280;9534;51.140;6.296;2023-02-28T14:38:31;101794.00;;;9.22;68.05
18813;BME280;9534;51.140;6.296;2023-02-28T14:42:37;101800.53;;;8.89;65.52
18813;BME280;9534;51.140;6.296;2023-02-28T14:46:44;101798.59;;;8.34;67.87
18813;BME280;9534;51.140;6.296;2023-02-28T14:50:49;101786.88;;;9.05;68.26
18813;BME280;9534;51.140;6.296;2023-02-28T14:54:55;101785.25;;;9.89;68.20
18813;BME280;9534;51.140;6.296;2023-02-28T14:59:00;101792.41;;;9.90;65.99
18813;BME280;9534;51.140;6.296;2023-02-28T15:03:18;101792.13;;;9.77;65.01
18813;BME280;9534;51.140;6.296;2023-02-28T15:07:21;101791.75;;;8.14;67.66
18813;BME280;9534;51.140;6.296;2023-02-28T15:11:30;101777.00;;;8.57;69.00
18813;BME280;9534;51.140;6.296;2023-02-28T15:15:42;101784.13;;;9.21;68.36
18813;BME280;9534;51.140;6.296;2023-02-28T15:20:03;101781.47;;;8.00;73.30
18813;BME280;9534;51.140;6.296;2023-02-28T15:24:12;101778.66;;;9.13;69.58
18813;BME280;9534;51.140;6.296;2023-02-28T15:28:18;101773.91;;;8.91;68.94
18813;BME280;9534;51.140;6.296;2023-02-28T15:32:30;101771.25;;;8.18;73.30
18813;BME280;9534;51.140;6.296;2023-02-28T15:36:34;101774.44;;;7.90;72.76
18813;BME280;9534;51.140;6.296;2023-02-28T15:40:42;101776.97;;;8.72;69.38
18813;BME280;9534;51.140;6.296;2023-02-28T15:44:45;101772.78;;;8.05;75.38
18813;BME280;9534;51.140;6.296;2023-02-28T15:48:52;101780.16;;;8.12;73.02
18813;BME280;9534;51.140;6.296;2023-02-28T15:52:56;101771.81;;;9.80;70.07
18813;BME280;9534;51.140;6.296;2023-02-28T15:57:03;101771.59;;;7.58;75.62
18813;BME280;9534;51.140;6.296;2023-02-28T16:01:18;101768.25;;;7.38;76.73
18813;BME280;9534;51.140;6.296;2023-02-28T16:05:25;101769.72;;;8.08;78.07
18813;BME280;9534;51.140;6.296;2023-02-28T16:09:33;101778.28;;;7.71;80.73
18813;BME280;9534;51.140;6.296;2023-02-28T16:13:36;101774.63;;;7.47;81.76
18813;BME280;9534;51.140;6.296;2023-02-28T16:17:40;101778.47;;;7.78;81.16
18813;BME280;9534;51.140;6.296;2023-02-28T16:21:45;101778.75;;;7.59;80.85
18813;BME280;9534;51.140;6.296;2023-02-28T16:25:48;101789.16;;;7.05;86.27
18813;BME280;9534;51.140;6.296;2023-02-28T16:29:52;101779.03;;;6.89;87.27
18813;BME280;9534;51.140;6.296;2023-02-28T16:33:56;101780.03;;;6.88;91.76
18813;BME280;9534;51.140;6.296;2023-02-28T16:38:01;101787.38;;;6.35;93.49
18813;BME280;9534;51.140;6.296;2023-02-28T16:42:04;101778.94;;;6.04;99.72
18813;BME280;9534;51.140;6.296;2023-02-28T16:46:10;101789.94;;;6.19;100.00
18813;BME280;9534;51.140;6.296;2023-02-28T16:50:16;101801.03;;;6.09;100.00
18813;BME280;9534;51.140;6.296;2023-02-28T16:54:20;101804.28;;;5.95;100.00
18813;BME280;9534;51.140;6.296;2023-02-28T16:58:23;101801.22;;;5.44;100.00
18813;BME280;9534;51.140;6.296;2023-02-28T17:02:28;101803.09;;;4.97;100.00
18813;BME280;9534;51.140;6.296;2023-02-28T17:06:31;101805.16;;;4.48;100.00
18813;BME280;9534;51.140;6.296;2023-02-28T17:10:36;101810.88;;;4.26;100.00
18813;BME280;9534;51.140;6.296;2023-02-28T17:14:39;101810.97;;;4.06;100.00
18813;BME280;9534;51.140;6.296;2023-02-28T17:18:42;101811.97;;;3.95;100.00
18813;BME280;9534;51.140;6.296;2023-02-28T17:22:45;101817.94;;;3.89;100.00
18813;BME280;9534;51.140;6.296;2023-02-28T17:26:50;101823.59;;;3.77;100.00
18813;BME280;9534;51.140;6.296;2023-02-28T17:30:53;101823.84;;;3.65;100.00
18813;BME280;9534;51.140;6.296;2023-02-28T17:34:56;101836.66;;;3.63;100.00
18813;BME280;9534;51.140;6.296;2023-02-28T17:39:01;101842.44;;;3.49;100.00
18813;BME280;9534;51.140;6.296;2023-02-28T17:43:05;101843.00;;;3.43;100.00
18813;BME280;9534;51.140;6.296;2023-02-28T17:47:11;101843.66;;;3.35;100.00
18813;BME280;9534;51.140;6.296;2023-02-28T17:51:16;101850.47;;;3.30;100.00
18813;BME280;9534;51.140;6.296;2023-02-28T17:55:19;101858.47;;;3.11;100.00
18813;BME280;9534;51.140;6.296;2023-02-28T17:59:24;101860.00;;;3.04;100.00
18813;BME280;9534;51.140;6.296;2023-02-28T18:03:27;101857.50;;;2.91;100.00
18813;BME280;9534;51.140;6.296;2023-02-28T18:07:36;101853.13;;;2.79;100.00
18813;BME280;9534;51.140;6.296;2023-02-28T18:11:40;101867.84;;;2.86;100.00
18813;BME280;9534;51.140;6.296;2023-02-28T18:15:51;101856.63;;;2.70;100.00
18813;BME280;9534;51.140;6.296;2023-02-28T18:19:54;101859.44;;;2.69;100.00
18813;BME280;9534;51.140;6.296;2023-02-28T18:23:57;101850.09;;;2.73;100.00
18813;BME280;9534;51.140;6.296;2023-02-28T18:28:00;101850.16;;;2.62;100.00
18813;BME280;9534;51.140;6.296;2023-02-28T18:32:05;101862.75;;;2.52;100.00
18813;BME280;9534;51.140;6.296;2023-02-28T18:36:09;101856.91;;;2.36;100.00
18813;BME280;9534;51.140;6.296;2023-02-28T18:40:13;101853.94;;;2.39;100.00
18813;BME280;9534;51.140;6.296;2023-02-28T18:44:17;101866.75;;;2.26;100.00
18813;BME280;9534;51.140;6.296;2023-02-28T18:48:23;101858.44;;;2.18;100.00
18813;BME280;9534;51.140;6.296;2023-02-28T18:52:26;101856.72;;;2.17;100.00
18813;BME280;9534;51.140;6.296;2023-02-28T18:56:30;101863.34;;;2.13;100.00
18813;BME280;9534;51.140;6.296;2023-02-28T19:00:35;101864.22;;;2.14;100.00
18813;BME280;9534;51.140;6.296;2023-02-28T19:04:41;101869.22;;;2.18;100.00
18813;BME280;9534;51.140;6.296;2023-02-28T19:08:44;101853.53;;;2.12;100.00
18813;BME280;9534;51.140;6.296;2023-02-28T19:12:48;101861.91;;;1.98;100.00
18813;BME280;9534;51.140;6.296;2023-02-28T19:16:51;101854.28;;;2.03;100.00
18813;BME280;9534;51.140;6.296;2023-02-28T19:20:56;101860.69;;;1.91;100.00
18813;BME280;9534;51.140;6.296;2023-02-28T19:25:00;101861.06;;;1.98;100.00
18813;BME280;9534;51.140;6.296;2023-02-28T19:29:04;101860.19;;;1.97;100.00
18813;BME280;9534;51.140;6.296;2023-02-28T19:33:07;101855.81;;;1.85;100.00
18813;BME280;9534;51.140;6.296;2023-02-28T19:37:12;101870.91;;;1.66;100.00
18813;BME280;9534;51.140;6.296;2023-02-28T19:41:16;101872.16;;;1.51;100.00
18813;BME280;9534;51.140;6.296;2023-02-28T19:45:21;101886.13;;;1.34;100.00
18813;BME280;9534;51.140;6.296;2023-02-28T19:49:24;101884.28;;;1.24;100.00
18813;BME280;9534;51.140;6.296;2023-02-28T19:53:30;101893.81;;;1.17;100.00
18813;BME280;9534;51.140;6.296;2023-02-28T19:57:34;101892.34;;;1.13;100.00
18813;BME280;9534;51.140;6.296;2023-02-28T20:01:37;101892.53;;;0.88;100.00
18813;BME280;9534;51.140;6.296;2023-02-28T20:05:40;101885.44;;;0.98;100.00
18813;BME280;9534;51.140;6.296;2023-02-28T20:09:45;101899.75;;;0.87;100.00
18813;BME280;9534;51.140;6.296;2023-02-28T20:13:51;101895.19;;;0.77;100.00
18813;BME280;9534;51.140;6.296;2023-02-28T20:17:55;101886.63;;;0.72;100.00
18813;BME280;9534;51.140;6.296;2023-02-28T20:22:00;101890.66;;;0.77;100.00
18813;BME280;9534;51.140;6.296;2023-02-28T20:26:05;101878.34;;;0.86;100.00
18813;BME280;9534;51.140;6.296;2023-02-28T20:30:10;101883.72;;;0.86;100.00
18813;BME280;9534;51.140;6.296;2023-02-28T20:34:13;101893.03;;;0.82;100.00
18813;BME280;9534;51.140;6.296;2023-02-28T20:38:18;101888.97;;;0.87;100.00
18813;BME280;9534;51.140;6.296;2023-02-28T20:42:23;101891.53;;;0.78;100.00
18813;BME280;9534;51.140;6.296;2023-02-28T20:46:27;101887.03;;;0.89;100.00
18813;BME280;9534;51.140;6.296;2023-02-28T20:50:31;101885.13;;;0.68;100.00
18813;BME280;9534;51.140;6.296;2023-02-28T20:54:34;101878.50;;;0.61;100.00
18813;BME280;9534;51.140;6.296;2023-02-28T20:58:39;101886.06;;;0.56;100.00
18813;BME280;9534;51.140;6.296;2023-02-28T21:02:42;101871.75;;;0.32;100.00
18813;BME280;9534;51.140;6.296;2023-02-28T21:06:45;101876.66;;;0.38;100.00
18813;BME280;9534;51.140;6.296;2023-02-28T21:10:49;101872.16;;;0.38;100.00
18813;BME280;9534;51.140;6.296;2023-02-28T21:14:53;101869.34;;;0.40;100.00
18813;BME280;9534;51.140;6.296;2023-02-28T21:18:57;101871.00;;;0.30;100.00
18813;BME280;9534;51.140;6.296;2023-02-28T21:23:04;101870.56;;;0.12;100.00
18813;BME280;9534;51.140;6.296;2023-02-28T21:27:07;101873.31;;;0.00;100.00
18813;BME280;9534;51.140;6.296;2023-02-28T21:31:14;101870.41;;;0.03;100.00
18813;BME280;9534;51.140;6.296;2023-02-28T21:35:18;101878.25;;;0.06;100.00
18813;BME280;9534;51.140;6.296;2023-02-28T21:39:23;101880.34;;;-0.10;100.00
18813;BME280;9534;51.140;6.296;2023-02-28T21:43:29;101880.63;;;-0.02;100.00
18813;BME280;9534;51.140;6.296;2023-02-28T21:47:34;101876.91;;;-0.12;100.00
18813;BME280;9534;51.140;6.296;2023-02-28T21:51:37;101886.94;;;0.09;100.00
18813;BME280;9534;51.140;6.296;2023-02-28T21:55:40;101887.63;;;0.24;100.00
18813;BME280;9534;51.140;6.296;2023-02-28T21:59:44;101887.09;;;0.19;100.00
18813;BME280;9534;51.140;6.296;2023-02-28T22:03:48;101889.09;;;0.05;100.00